createdAt,value
2019-01-04T00:01:33.585Z,16.53
2019-01-04T00:04:27.323Z,28.90
2019-01-04T00:07:18.018Z,23.07
2019-01-04T00:10:07.925Z,16.67
2019-01-04T00:12:58.275Z,26.10
2019-01-04T00:15:48.502Z,23.07
2019-01-04T00:18:38.683Z,31.67
2019-01-04T00:21:28.336Z,24.10
2019-01-04T00:24:18.224Z,22.40
2019-01-04T00:27:09.420Z,18.27
2019-01-04T00:29:59.205Z,19.20
2019-01-04T00:32:49.083Z,22.73
2019-01-04T00:35:39.064Z,21.60
2019-01-04T00:38:29.318Z,26.97
2019-01-04T00:41:19.414Z,27.77
2019-01-04T00:44:09.465Z,25.23
2019-01-04T00:47:01.453Z,29.40
2019-01-04T00:49:51.366Z,27.17
2019-01-04T00:52:41.360Z,30.07
2019-01-04T00:56:29.247Z,22.37
2019-01-04T01:00:23.100Z,26.37
2019-01-04T01:04:01.698Z,26.40
2019-01-04T01:07:45.874Z,20.33
2019-01-04T01:11:42.226Z,28.20
2019-01-04T01:15:27.267Z,25.33
2019-01-04T01:19:01.379Z,22.03
2019-01-04T01:22:40.576Z,37.90
2019-01-04T01:26:18.009Z,24.00
2019-01-04T01:29:57.984Z,19.83
2019-01-04T01:33:31.726Z,23.17
2019-01-04T01:37:13.935Z,30.00
2019-01-04T01:40:53.737Z,23.47
2019-01-04T01:44:59.939Z,26.53
2019-01-04T01:47:59.437Z,31.23
2019-01-04T01:51:53.147Z,25.80
2019-01-04T01:54:43.157Z,22.70
2019-01-04T01:57:32.825Z,27.40
2019-01-04T02:00:23.161Z,27.90
2019-01-04T02:03:13.196Z,30.63
2019-01-04T02:06:03.346Z,25.87
2019-01-04T02:08:53.110Z,30.30
2019-01-04T02:11:43.169Z,28.97
2019-01-04T02:14:33.361Z,26.80
2019-01-04T02:17:23.648Z,22.60
2019-01-04T02:20:13.610Z,30.17
2019-01-04T02:23:03.665Z,28.50
2019-01-04T02:25:53.428Z,30.63
2019-01-04T02:28:43.830Z,32.50
2019-01-04T02:31:33.824Z,29.47
2019-01-04T02:34:23.641Z,28.90
2019-01-04T02:37:14.011Z,26.20
2019-01-04T02:40:04.322Z,29.43
2019-01-04T02:42:54.317Z,34.37
2019-01-04T02:45:43.892Z,33.30
2019-01-04T02:48:33.952Z,33.47
2019-01-04T02:51:23.695Z,34.23
2019-01-04T02:54:13.766Z,29.07
2019-01-04T02:57:03.549Z,35.30
2019-01-04T02:59:53.485Z,33.57
2019-01-04T03:02:43.146Z,47.30
2019-01-04T03:05:33.350Z,35.40
2019-01-04T03:08:23.524Z,32.03
2019-01-04T03:11:13.205Z,37.13
2019-01-04T03:14:02.950Z,32.97
2019-01-04T03:16:53.121Z,39.13
2019-01-04T03:19:43.002Z,30.67
2019-01-04T03:22:33.294Z,34.00
2019-01-04T03:25:22.904Z,33.97
2019-01-04T03:28:12.839Z,33.83
2019-01-04T03:31:02.752Z,39.03
2019-01-04T03:33:54.187Z,32.43
2019-01-04T03:36:44.059Z,34.40
2019-01-04T03:39:34.023Z,35.30
2019-01-04T03:42:23.902Z,35.37
2019-01-04T03:45:13.659Z,32.53
2019-01-04T03:48:03.785Z,33.93
2019-01-04T03:50:53.835Z,33.50
2019-01-04T03:53:43.887Z,33.63
2019-01-04T03:56:33.773Z,41.43
2019-01-04T03:59:24.112Z,37.47
2019-01-04T04:02:14.107Z,36.73
2019-01-04T04:05:04.608Z,30.20
2019-01-04T04:07:54.685Z,32.43
2019-01-04T04:10:45.079Z,32.23
2019-01-04T04:13:34.735Z,36.60
2019-01-04T04:16:24.879Z,32.80
2019-01-04T04:19:15.046Z,33.17
2019-01-04T04:22:05.172Z,30.27
2019-01-04T04:24:55.464Z,34.27
2019-01-04T04:27:45.240Z,32.33
2019-01-04T04:30:34.939Z,27.57
2019-01-04T04:33:25.053Z,33.93
2019-01-04T04:36:15.120Z,27.23
2019-01-04T04:39:07.221Z,25.23
2019-01-04T04:41:56.924Z,31.53
2019-01-04T04:44:46.863Z,34.50
2019-01-04T04:47:36.707Z,34.03
2019-01-04T04:50:26.512Z,30.50
2019-01-04T04:53:16.053Z,26.37
2019-01-04T04:56:06.543Z,29.13
2019-01-04T04:58:56.046Z,29.13
2019-01-04T05:01:46.155Z,28.20
2019-01-04T05:04:35.914Z,29.73
2019-01-04T05:07:26.353Z,27.67
2019-01-04T05:10:16.500Z,28.63
2019-01-04T05:13:06.316Z,26.70
2019-01-04T05:15:57.701Z,32.90
2019-01-04T05:18:47.102Z,26.80
2019-01-04T05:21:36.932Z,38.53
2019-01-04T05:24:27.115Z,30.63
2019-01-04T05:27:17.193Z,26.10
2019-01-04T05:30:07.790Z,25.50
2019-01-04T05:32:58.832Z,26.60
2019-01-04T05:35:49.119Z,26.47
2019-01-04T05:38:39.141Z,33.20
2019-01-04T05:41:28.954Z,22.93
2019-01-04T05:44:18.661Z,25.70
2019-01-04T05:47:08.509Z,29.63
2019-01-04T05:49:58.505Z,22.33
2019-01-04T05:52:48.699Z,25.67
2019-01-04T05:55:38.585Z,23.63
2019-01-04T05:58:28.687Z,31.80
2019-01-04T06:01:18.761Z,25.40
2019-01-04T06:04:09.358Z,40.77
2019-01-04T06:06:59.120Z,27.77
2019-01-04T06:09:49.280Z,22.57
2019-01-04T06:12:39.493Z,24.37
2019-01-04T06:15:29.316Z,29.07
2019-01-04T06:18:18.917Z,26.00
2019-01-04T06:21:08.897Z,32.57
2019-01-04T06:23:59.059Z,23.70
2019-01-04T06:26:49.218Z,25.60
2019-01-04T06:29:38.543Z,26.63
2019-01-04T06:32:28.615Z,26.57
2019-01-04T06:35:18.587Z,23.97
2019-01-04T06:38:08.880Z,21.80
2019-01-04T06:40:58.266Z,36.93
2019-01-04T06:43:48.375Z,28.70
2019-01-04T06:47:17.763Z,25.73
2019-01-04T06:50:09.399Z,24.27
2019-01-04T06:52:58.357Z,28.70
2019-01-04T06:55:57.828Z,26.73
2019-01-04T06:58:48.842Z,21.00
2019-01-04T07:01:38.699Z,28.70
2019-01-04T07:04:28.249Z,19.73
2019-01-04T07:07:18.349Z,19.80
2019-01-04T07:10:08.936Z,17.77
2019-01-04T07:12:59.178Z,19.53
2019-01-04T07:15:49.112Z,15.80
2019-01-04T07:18:39.709Z,13.83
2019-01-04T07:21:29.809Z,17.33
2019-01-04T07:24:19.765Z,12.23
2019-01-04T07:27:09.707Z,11.50
2019-01-04T07:29:59.630Z,22.00
2019-01-04T07:32:49.888Z,11.87
2019-01-04T07:35:40.139Z,21.00
2019-01-04T07:38:30.351Z,20.07
2019-01-04T07:41:20.277Z,15.50
2019-01-04T07:44:10.100Z,19.83
2019-01-04T07:46:59.357Z,16.07
2019-01-04T07:49:49.422Z,17.70
2019-01-04T07:52:39.335Z,14.23
2019-01-04T07:55:29.337Z,19.73
2019-01-04T07:58:19.483Z,18.93
2019-01-04T08:01:09.316Z,16.23
2019-01-04T08:03:59.439Z,25.93
2019-01-04T08:06:49.743Z,16.97
2019-01-04T08:09:39.508Z,17.57
2019-01-04T08:12:29.249Z,21.37
2019-01-04T08:15:19.165Z,24.77
2019-01-04T08:18:08.994Z,24.37
2019-01-04T08:20:58.536Z,20.97
2019-01-04T08:23:48.391Z,20.53
2019-01-04T08:26:38.347Z,21.50
2019-01-04T08:29:28.256Z,21.07
2019-01-04T08:32:18.092Z,21.30
2019-01-04T08:35:08.370Z,16.13
2019-01-04T08:37:58.296Z,23.73
2019-01-04T08:40:48.535Z,21.20
2019-01-04T08:43:38.300Z,20.10
2019-01-04T08:46:28.242Z,21.10
2019-01-04T08:49:18.572Z,22.63
2019-01-04T08:52:08.457Z,16.47
2019-01-04T08:54:58.604Z,16.83
2019-01-04T08:57:48.327Z,18.53
2019-01-04T09:00:38.251Z,21.80
2019-01-04T09:03:28.347Z,16.90
2019-01-04T09:06:18.385Z,16.73
2019-01-04T09:09:09.325Z,18.03
2019-01-04T09:11:58.983Z,21.33
2019-01-04T09:14:49.159Z,24.83
2019-01-04T09:17:39.423Z,17.40
2019-01-04T09:20:28.949Z,23.07
2019-01-04T09:23:18.546Z,20.60
2019-01-04T09:26:08.701Z,16.00
2019-01-04T09:28:58.576Z,17.97
2019-01-04T09:31:48.562Z,18.23
2019-01-04T09:34:38.800Z,13.00
2019-01-04T09:37:28.630Z,16.87
2019-01-04T09:40:18.971Z,15.53
2019-01-04T09:43:12.129Z,14.17
2019-01-04T09:46:01.794Z,17.10
2019-01-04T09:48:51.702Z,19.67
2019-01-04T09:51:41.910Z,20.20
2019-01-04T09:54:31.736Z,19.53
2019-01-04T09:57:23.626Z,18.63
2019-01-04T10:00:14.726Z,18.83
2019-01-04T10:03:04.635Z,15.57
2019-01-04T10:05:54.666Z,16.23
2019-01-04T10:08:45.036Z,19.43
2019-01-04T10:11:35.445Z,18.67
2019-01-04T10:14:25.459Z,21.07
2019-01-04T10:17:15.497Z,17.70
2019-01-04T10:20:06.030Z,15.47
2019-01-04T10:22:56.461Z,16.40
2019-01-04T10:25:46.671Z,20.13
2019-01-04T10:28:36.896Z,19.43
2019-01-04T10:31:26.948Z,20.63
2019-01-04T10:34:16.481Z,23.67
2019-01-04T10:37:06.857Z,15.37
2019-01-04T10:39:57.208Z,24.43
2019-01-04T10:42:47.571Z,16.43
2019-01-04T10:45:37.914Z,15.40
2019-01-04T10:48:27.575Z,15.67
2019-01-04T10:51:17.577Z,18.70
2019-01-04T10:54:07.443Z,15.57
2019-01-04T10:56:57.454Z,20.73
2019-01-04T10:59:47.685Z,23.20
2019-01-04T11:02:37.932Z,24.43
2019-01-04T11:05:27.485Z,21.27
2019-01-04T11:08:17.475Z,20.47
2019-01-04T11:11:07.605Z,23.57
2019-01-04T11:13:57.516Z,18.27
2019-01-04T11:16:47.306Z,16.13
2019-01-04T11:19:37.337Z,22.03
2019-01-04T11:23:35.529Z,19.30
2019-01-04T11:26:35.427Z,21.07
2019-01-04T11:30:10.219Z,23.40
2019-01-04T11:33:46.076Z,17.20
2019-01-04T11:37:18.961Z,23.47
2019-01-04T11:41:18.386Z,19.60
2019-01-04T11:44:33.339Z,23.70
2019-01-04T11:48:07.746Z,18.57
2019-01-04T11:51:19.863Z,14.17
2019-01-04T11:54:18.959Z,21.40
2019-01-04T11:57:08.823Z,18.87
2019-01-04T11:59:59.087Z,19.60
2019-01-04T12:02:49.171Z,14.60
2019-01-04T12:05:39.445Z,19.93
2019-01-04T12:08:29.064Z,16.33
2019-01-04T12:11:18.858Z,19.03
2019-01-04T12:14:08.895Z,15.83
2019-01-04T12:16:58.484Z,14.97
2019-01-04T12:19:48.806Z,28.03
2019-01-04T12:22:38.667Z,23.27
2019-01-04T12:25:28.768Z,19.90
2019-01-04T12:28:18.726Z,20.23
2019-01-04T12:31:09.587Z,13.83
2019-01-04T12:33:59.598Z,19.73
2019-01-04T12:36:49.330Z,18.23
2019-01-04T12:39:39.666Z,24.50
2019-01-04T12:42:29.427Z,15.60
2019-01-04T12:45:19.202Z,17.03
2019-01-04T12:48:08.960Z,22.13
2019-01-04T12:50:59.054Z,15.10
2019-01-04T12:53:49.023Z,17.53
2019-01-04T12:56:38.990Z,15.97
2019-01-04T12:59:28.942Z,21.20
2019-01-04T13:02:19.254Z,20.27
2019-01-04T13:05:09.115Z,20.00
2019-01-04T13:08:02.096Z,21.80
2019-01-04T13:10:53.583Z,17.80
2019-01-04T13:13:43.437Z,18.13
2019-01-04T13:16:33.411Z,16.23
2019-01-04T13:19:25.785Z,18.23
2019-01-04T13:22:15.824Z,17.03
2019-01-04T13:25:07.008Z,20.27
2019-01-04T13:27:56.791Z,18.17
2019-01-04T13:30:46.972Z,15.83
2019-01-04T13:33:40.477Z,14.10
2019-01-04T13:36:30.638Z,14.50
2019-01-04T13:39:20.511Z,15.30
2019-01-04T13:42:10.993Z,14.57
2019-01-04T13:45:01.089Z,14.40
2019-01-04T13:47:51.267Z,12.23
2019-01-04T13:50:40.763Z,15.97
2019-01-04T13:53:30.851Z,13.57
2019-01-04T13:56:21.250Z,14.40
2019-01-04T13:59:11.029Z,12.47
2019-01-04T14:02:01.057Z,15.40
2019-01-04T14:04:51.099Z,18.10
2019-01-04T14:07:40.888Z,13.10
2019-01-04T14:10:30.744Z,14.10
2019-01-04T14:13:20.923Z,13.33
2019-01-04T14:16:10.836Z,17.57
2019-01-04T14:19:00.714Z,14.20
2019-01-04T14:21:51.899Z,12.80
2019-01-04T14:24:41.915Z,11.90
2019-01-04T14:27:32.178Z,11.70
2019-01-04T14:30:22.823Z,16.00
2019-01-04T14:33:12.827Z,20.17
2019-01-04T14:36:03.290Z,11.80
2019-01-04T14:38:53.556Z,11.70
2019-01-04T14:41:43.616Z,15.23
2019-01-04T14:44:33.991Z,12.93
2019-01-04T14:47:24.342Z,15.37
2019-01-04T14:50:14.425Z,12.87
2019-01-04T14:53:04.386Z,13.03
2019-01-04T14:55:54.625Z,13.03
2019-01-04T14:58:45.526Z,9.97
2019-01-04T15:01:35.366Z,12.47
2019-01-04T15:04:25.148Z,10.97
2019-01-04T15:07:14.907Z,18.13
2019-01-04T15:10:05.069Z,10.37
2019-01-04T15:12:55.417Z,8.43
2019-01-04T15:15:45.426Z,10.13
2019-01-04T15:18:35.603Z,9.00
2019-01-04T15:21:25.592Z,11.13
2019-01-04T15:24:15.349Z,12.17
2019-01-04T15:27:05.220Z,10.00
2019-01-04T15:29:55.342Z,9.83
2019-01-04T15:32:45.600Z,12.50
2019-01-04T15:35:35.457Z,10.93
2019-01-04T15:38:25.546Z,9.80
2019-01-04T15:41:15.194Z,8.50
2019-01-04T15:44:05.260Z,8.10
2019-01-04T15:46:54.486Z,9.77
2019-01-04T15:49:45.385Z,7.90
2019-01-04T15:52:35.099Z,7.90
2019-01-04T15:55:24.730Z,13.77
2019-01-04T15:58:14.617Z,10.47
2019-01-04T16:01:05.050Z,9.80
2019-01-04T16:03:54.909Z,12.13
2019-01-04T16:06:45.155Z,9.57
2019-01-04T16:09:34.724Z,11.33
2019-01-04T16:12:24.954Z,12.43
2019-01-04T16:15:14.519Z,9.93
2019-01-04T16:18:05.615Z,12.37
2019-01-04T16:20:54.731Z,10.07
2019-01-04T16:23:45.095Z,10.43
2019-01-04T16:26:34.416Z,11.53
2019-01-04T16:29:26.694Z,10.60
2019-01-04T16:32:16.704Z,15.43
2019-01-04T16:35:06.826Z,12.40
2019-01-04T16:37:56.486Z,16.33
2019-01-04T16:40:46.185Z,14.27
2019-01-04T16:43:36.291Z,11.13
2019-01-04T16:46:26.125Z,12.57
2019-01-04T16:49:16.202Z,14.53
2019-01-04T16:52:06.827Z,14.20
2019-01-04T16:54:56.574Z,11.30
2019-01-04T16:57:46.787Z,13.20
2019-01-04T17:00:37.130Z,16.10
2019-01-04T17:03:27.154Z,15.30
2019-01-04T17:06:17.259Z,12.10
2019-01-04T17:09:09.067Z,12.67
2019-01-04T17:11:59.097Z,15.40
2019-01-04T17:14:49.318Z,17.73
2019-01-04T17:17:40.523Z,16.17
2019-01-04T17:20:31.116Z,17.47
2019-01-04T17:23:21.055Z,16.60
2019-01-04T17:26:11.309Z,17.57
2019-01-04T17:29:01.329Z,15.57
2019-01-04T17:31:51.758Z,20.73
2019-01-04T17:34:41.723Z,14.67
2019-01-04T17:37:31.769Z,17.93
2019-01-04T17:40:21.395Z,17.00
2019-01-04T17:43:11.632Z,16.73
2019-01-04T17:46:01.866Z,19.77
2019-01-04T17:48:51.888Z,26.00
2019-01-04T17:51:42.374Z,15.33
2019-01-04T17:54:32.651Z,12.43
2019-01-04T17:57:22.448Z,11.97
2019-01-04T18:00:13.788Z,11.57
2019-01-04T18:03:04.183Z,14.77
2019-01-04T18:05:54.184Z,9.60
2019-01-04T18:08:44.132Z,13.17
2019-01-04T18:11:33.663Z,9.80
2019-01-04T18:14:23.480Z,11.00
2019-01-04T18:17:14.817Z,10.30
2019-01-04T18:20:06.988Z,18.73
2019-01-04T18:23:04.307Z,10.30
2019-01-04T18:25:54.679Z,11.07
2019-01-04T18:28:44.536Z,10.03
2019-01-04T18:31:34.719Z,10.23
2019-01-04T18:34:25.068Z,12.67
2019-01-04T18:37:14.628Z,10.03
2019-01-04T18:40:09.655Z,9.80
2019-01-04T18:42:59.832Z,19.60
2019-01-04T18:45:49.784Z,13.63
2019-01-04T18:48:39.542Z,8.87
2019-01-04T18:51:29.484Z,15.93
2019-01-04T18:54:21.039Z,11.27
2019-01-04T18:57:11.209Z,8.27
2019-01-04T19:00:02.149Z,11.07
2019-01-04T19:02:52.445Z,11.00
2019-01-04T19:05:42.653Z,9.80
2019-01-04T19:08:34.014Z,13.60
2019-01-04T19:11:24.438Z,8.87
2019-01-04T19:14:14.646Z,8.40
2019-01-04T19:17:06.067Z,11.40
2019-01-04T19:19:56.598Z,11.63
2019-01-04T19:22:47.560Z,10.10
2019-01-04T19:25:37.584Z,9.43
2019-01-04T19:28:27.483Z,8.57
2019-01-04T19:31:18.204Z,11.50
2019-01-04T19:34:08.439Z,9.70
2019-01-04T19:36:58.377Z,12.90
2019-01-04T19:39:48.723Z,7.97
2019-01-04T19:42:40.409Z,12.70
2019-01-04T19:45:30.494Z,13.47
2019-01-04T19:48:20.789Z,10.67
2019-01-04T19:51:10.475Z,9.63
2019-01-04T19:54:00.036Z,12.80
2019-01-04T19:56:49.726Z,13.47
2019-01-04T19:59:40.011Z,10.70
2019-01-04T20:02:29.517Z,10.57
2019-01-04T20:05:46.938Z,12.43
2019-01-04T20:10:29.631Z,17.40
2019-01-04T20:14:50.735Z,16.03
2019-01-04T20:18:00.103Z,11.23
2019-01-04T20:21:07.737Z,14.00
2019-01-04T20:24:09.047Z,11.80
2019-01-04T20:27:19.136Z,12.20
2019-01-04T20:30:37.198Z,10.47
2019-01-04T20:34:02.892Z,8.90
2019-01-04T20:37:23.813Z,11.13
2019-01-04T20:40:31.784Z,11.77
2019-01-04T20:43:34.362Z,11.90
2019-01-04T20:46:50.913Z,27.97
2019-01-04T20:50:01.857Z,11.97
2019-01-04T20:53:08.569Z,12.90
2019-01-04T20:56:23.226Z,10.43
2019-01-04T20:59:28.834Z,11.10
2019-01-04T21:02:44.839Z,15.20
2019-01-04T21:05:49.487Z,17.43
2019-01-04T21:09:10.787Z,15.63
2019-01-04T21:12:27.933Z,12.00
2019-01-04T21:15:35.925Z,13.27
2019-01-04T21:18:59.177Z,16.50
2019-01-04T21:22:20.264Z,11.33
2019-01-04T21:25:23.087Z,13.47
2019-01-04T21:28:30.897Z,11.73
2019-01-04T21:31:51.451Z,12.50
2019-01-04T21:35:01.833Z,16.57
2019-01-04T21:38:09.571Z,14.27
2019-01-04T21:41:09.671Z,21.07
2019-01-04T21:44:17.244Z,22.97
2019-01-04T21:47:24.704Z,24.73
2019-01-04T21:50:34.299Z,24.70
2019-01-04T21:53:37.312Z,21.47
2019-01-04T21:56:53.177Z,23.03
2019-01-04T22:00:00.851Z,19.50
2019-01-04T22:03:13.690Z,19.63
2019-01-04T22:06:25.831Z,15.87
2019-01-04T22:09:33.308Z,13.87
2019-01-04T22:12:42.547Z,11.93
2019-01-04T22:15:51.329Z,14.20
2019-01-04T22:19:15.089Z,11.70
2019-01-04T22:22:23.204Z,9.40
2019-01-04T22:25:30.891Z,22.60
2019-01-04T22:28:39.940Z,7.97
2019-01-04T22:31:53.863Z,9.17
2019-01-04T22:35:01.052Z,7.23
2019-01-04T22:38:09.129Z,7.90
2019-01-04T22:41:16.764Z,6.90
2019-01-04T22:44:34.728Z,9.20
2019-01-04T22:47:52.357Z,8.27
2019-01-04T22:51:07.404Z,12.63
2019-01-04T22:54:14.944Z,15.13
2019-01-04T22:57:22.533Z,15.27
2019-01-04T23:00:37.892Z,10.50
2019-01-04T23:03:50.593Z,8.20
2019-01-04T23:06:58.203Z,8.43
2019-01-04T23:10:05.905Z,22.93
2019-01-04T23:13:24.012Z,6.10
2019-01-04T23:16:24.494Z,6.27
2019-01-04T23:19:32.001Z,7.80
2019-01-04T23:23:09.757Z,7.80
2019-01-04T23:26:19.561Z,11.17
2019-01-04T23:29:24.599Z,12.50
2019-01-04T23:32:30.433Z,15.30
2019-01-04T23:35:36.102Z,14.53
2019-01-04T23:38:50.787Z,17.30
2019-01-04T23:42:16.696Z,14.93
2019-01-04T23:45:24.982Z,15.30
2019-01-04T23:48:43.871Z,15.20
2019-01-04T23:51:46.957Z,13.67
2019-01-04T23:54:53.054Z,17.93
2019-01-04T23:57:57.735Z,13.23
